Terminal Aerodrome Forecast
Issued by NWS

Home | Current Version | Previous Version | Graphics & Text | Print | Product List | Glossary On
Versions: 1 2 3 4 5 6 7 8 9 10 11 12 13 14 15 16
487
FTUS41 KCLE 192334
TAFFDY
TAF
KFDY 192334Z 2000/2024 29006KT P6SM FEW250
     FM200100 VRB03KT P6SM SKC
      TEMPO 2010/2012 4SM BR
     FM201400 18006KT P6SM FEW250=

USA.gov is the U.S. government's official web portal to all federal, state and local government web resources and services.